North Avondale, Colorado
Current Conditions -  °F | °C
As of 2:53 AM on Monday 20 Oct 2014 (Local Time) from KPUB Reporting Station
Clear Clear  
Wind Chill:   Ceiling: Unl
Heat Index:   Visibility: 10mi
Dew Point:   Wind: 7mph
Humidity: 74%   Direction: 350°N
Pressure: 30.15"   Gusts: NA
Location:  38.0104°N, 104.392°W
Report Text: KPUB 200853Z 35006KT 10SM CLR 07/03 A3015 RMK AO2 SLP170 T00720028 51003
Loading
Personal Weather Stations






























Interactive Weather Map
Tropical Storm Tracking
New forecast layout! Learn more

10-Day Weather Forecast

Advertisements
Track Severe Weather on mobile